»·PEaware :: SWA1 KSLC-KSEA

SWA1 :: KSLC-KSEA

FLIGHT INFORMATION

Flight Status: Arrived
Operator:
Southwest Airlines
More flights by this operator :: More flights under this callsign
Pilot: Maximilliano F. (23467)
Aircraft: BOEING 737-800
(B738)
More flights by this aircraft type
Origin: KSLC Salt Lake City Intl
United States
Destination: KSEA Seattle-Tacoma Intl
United States
More flights between these airports :: More routes between these airports
Route: CGULL1 TWF BOI J163 BKE PDT CHINS3
File this flight plan on PilotEdge
Remarks: RMK / SIMBRIEF
Altitude:
(Current/Filed)
36,000ft
Speed:
(Current/Filed)
455kts
Departed: 07-Nov-19 08:15 PM
Arrived: 07-Nov-19 09:52 PM
Distance/Time
Traveled:
597nm/1:37
Distance/Time
To Go:
Arrived

Flight Plot

Page will automatically refresh every two minutes.

Flight plan parsing failed; only flown route is shown


Map Options




Map Legend


Flown Route
Filed Route
Departure Airport
Arrival Airport
Navaid (VOR, NDB)
Fix

Horizontal Profiles

Position Reports

Time Latitude Longitude Heading Altitude Ground
Speed
07-Nov-19 19:39 40.785631 -111.978635 239 4235ft 0kts
07-Nov-19 19:40 40.785631 -111.978635 239 4235ft 0kts
07-Nov-19 19:41 40.785631 -111.978635 239 4235ft 0kts
07-Nov-19 19:42 40.785631 -111.978635 239 4235ft 0kts
07-Nov-19 19:43 40.785631 -111.978635 239 4235ft 0kts
07-Nov-19 19:44 40.785631 -111.978635 239 4234ft 0kts
07-Nov-19 19:45 40.785631 -111.978635 239 4234ft 0kts
07-Nov-19 19:46 40.785631 -111.978635 239 4234ft 0kts
07-Nov-19 19:47 40.785631 -111.978635 239 4234ft 0kts
07-Nov-19 19:48 40.785631 -111.978635 239 4234ft 0kts
07-Nov-19 19:49 40.785631 -111.978635 239 4234ft 0kts
07-Nov-19 19:50 40.785631 -111.978635 239 4234ft 0kts
07-Nov-19 19:51 40.785631 -111.978635 239 4234ft 0kts
07-Nov-19 19:52 40.785631 -111.978635 239 4234ft 0kts
07-Nov-19 19:53 40.785631 -111.978635 239 4234ft 0kts
07-Nov-19 19:54 40.785631 -111.978635 239 4234ft 0kts
07-Nov-19 19:55 40.785631 -111.978635 239 4234ft 0kts
07-Nov-19 19:56 40.785631 -111.978635 239 4234ft 0kts
07-Nov-19 19:57 40.785631 -111.978635 239 4234ft 0kts
07-Nov-19 19:58 40.785631 -111.978635 239 4235ft 0kts
07-Nov-19 19:59 40.785993 -111.978210 201 4235ft 2kts
07-Nov-19 20:00 40.786373 -111.978143 173 4235ft 0kts
07-Nov-19 20:01 40.786373 -111.978143 173 4234ft 0kts
07-Nov-19 20:02 40.786373 -111.978143 173 4234ft 0kts
07-Nov-19 20:03 40.786373 -111.978143 173 4234ft 0kts
07-Nov-19 20:04 40.786373 -111.978143 173 4234ft 0kts
07-Nov-19 20:06 40.786310 -111.978133 173 4235ft 0kts
07-Nov-19 20:07 40.786156 -111.977943 100 4234ft 3kts
07-Nov-19 20:08 40.786298 -111.976968 58 4235ft 8kts
07-Nov-19 20:09 40.791202 -111.977224 355 4234ft 19kts
07-Nov-19 20:10 40.796116 -111.977794 354 4234ft 15kts
07-Nov-19 20:11 40.800286 -111.978278 354 4234ft 14kts
07-Nov-19 20:12 40.803857 -111.978225 356 4235ft 12kts
07-Nov-19 20:13 40.807092 -111.978539 23 4234ft 9kts
07-Nov-19 20:14 40.806830 -111.976872 169 4234ft 3kts
07-Nov-19 20:15 40.783571 -111.974166 174 4285ft 186kts
07-Nov-19 20:16 40.735474 -111.990683 257 6037ft 232kts
07-Nov-19 20:17 40.772182 -112.062435 317 8419ft 260kts
07-Nov-19 20:18 40.828560 -112.130954 317 10337ft 304kts
07-Nov-19 20:19 40.895549 -112.212524 317 12412ft 340kts
07-Nov-19 20:20 40.966106 -112.298708 317 15103ft 354kts
07-Nov-19 20:21 41.039564 -112.388721 317 17651ft 368kts
07-Nov-19 20:22 41.120431 -112.470241 330 19938ft 380kts
07-Nov-19 20:22 41.194939 -112.535000 322 21733ft 391kts
07-Nov-19 20:24 41.294276 -112.643351 313 24021ft 405kts
07-Nov-19 20:25 41.371202 -112.755980 312 25815ft 416kts
07-Nov-19 20:25 41.436056 -112.852841 310 27195ft 425kts
07-Nov-19 20:27 41.527880 -112.993680 311 28976ft 437kts
07-Nov-19 20:28 41.608026 -113.116828 311 30470ft 444kts
07-Nov-19 20:28 41.675476 -113.220867 311 31908ft 442kts
07-Nov-19 20:29 41.755241 -113.344371 311 33518ft 439kts
07-Nov-19 20:31 41.847806 -113.488338 311 35192ft 435kts
07-Nov-19 20:31 41.913407 -113.590788 311 35988ft 441kts
07-Nov-19 20:32 41.993425 -113.716202 310 35998ft 446kts
07-Nov-19 20:33 42.073780 -113.842706 310 36000ft 445kts
07-Nov-19 20:34 42.153257 -113.968346 310 35999ft 445kts
07-Nov-19 20:35 42.232935 -114.095593 310 36000ft 445kts
07-Nov-19 20:36 42.313069 -114.222683 310 36000ft 445kts
07-Nov-19 20:37 42.392875 -114.349812 310 36000ft 445kts
07-Nov-19 20:38 42.472784 -114.477674 310 36000ft 445kts
07-Nov-19 20:39 42.554118 -114.604094 311 36000ft 445kts
07-Nov-19 20:40 42.635220 -114.729726 311 36000ft 445kts
07-Nov-19 20:41 42.716325 -114.855924 311 36000ft 445kts
07-Nov-19 20:42 42.797555 -114.982861 311 36000ft 445kts
07-Nov-19 20:43 42.878349 -115.109662 311 36000ft 445kts
07-Nov-19 20:44 42.959296 -115.237255 311 36000ft 445kts
07-Nov-19 20:45 43.039898 -115.364860 311 36000ft 445kts
07-Nov-19 20:46 43.120142 -115.492454 311 36000ft 445kts
07-Nov-19 20:47 43.200662 -115.621050 311 36000ft 445kts
07-Nov-19 20:48 43.280462 -115.749054 310 36000ft 445kts
07-Nov-19 20:49 43.360687 -115.878308 310 36000ft 445kts
07-Nov-19 20:50 43.440651 -116.007712 310 36000ft 445kts
07-Nov-19 20:51 43.520670 -116.137782 310 36000ft 445kts
07-Nov-19 20:52 43.607081 -116.258798 319 36000ft 445kts
07-Nov-19 20:53 43.699894 -116.371573 318 35999ft 445kts
07-Nov-19 20:54 43.792374 -116.485038 318 36000ft 445kts
07-Nov-19 20:55 43.884568 -116.598622 318 36000ft 445kts
07-Nov-19 20:56 43.976251 -116.712059 318 36000ft 445kts
07-Nov-19 20:57 44.068312 -116.826456 318 36000ft 445kts
07-Nov-19 20:58 44.159773 -116.940601 318 36000ft 445kts
07-Nov-19 20:59 44.251580 -117.055677 318 36000ft 445kts
07-Nov-19 21:00 44.343151 -117.170956 318 36000ft 445kts
07-Nov-19 21:01 44.431015 -117.283123 319 36379ft 395kts
07-Nov-19 21:02 44.511414 -117.385082 319 36406ft 397kts
07-Nov-19 21:03 44.592697 -117.488717 319 36399ft 393kts
07-Nov-19 21:04 44.673604 -117.592244 319 36399ft 394kts
07-Nov-19 21:05 44.754427 -117.696167 319 36401ft 394kts
07-Nov-19 21:06 44.835224 -117.800419 318 36400ft 394kts
07-Nov-19 21:07 44.915602 -117.904764 319 36388ft 394kts
07-Nov-19 21:08 44.996057 -118.009052 318 36358ft 394kts
07-Nov-19 21:09 45.076973 -118.114369 318 36318ft 395kts
07-Nov-19 21:10 45.156929 -118.218852 318 36314ft 394kts
07-Nov-19 21:11 45.237190 -118.324142 318 36312ft 394kts
07-Nov-19 21:12 45.317513 -118.429940 317 36310ft 394kts
07-Nov-19 21:13 45.397534 -118.535772 317 36309ft 394kts
07-Nov-19 21:14 45.477341 -118.641739 317 36310ft 394kts
07-Nov-19 21:15 45.555949 -118.746669 317 36324ft 394kts
07-Nov-19 21:16 45.635831 -118.853598 317 36340ft 395kts
07-Nov-19 21:17 45.713967 -118.963684 311 36344ft 395kts
07-Nov-19 21:18 45.784756 -119.084154 311 36344ft 396kts
07-Nov-19 21:19 45.856059 -119.204750 311 36343ft 397kts
07-Nov-19 21:20 45.927224 -119.325669 310 36342ft 397kts
07-Nov-19 21:21 45.998338 -119.447020 310 36340ft 398kts
07-Nov-19 21:22 46.069218 -119.568506 310 36339ft 396kts
07-Nov-19 21:23 46.138269 -119.687420 309 36357ft 397kts
07-Nov-19 21:24 46.208787 -119.809737 309 36365ft 398kts
07-Nov-19 21:25 46.279207 -119.932641 309 36368ft 398kts
07-Nov-19 21:26 46.349481 -120.055413 309 36364ft 397kts
07-Nov-19 21:27 46.420360 -120.179618 309 35125ft 414kts
07-Nov-19 21:28 46.491968 -120.305667 309 31347ft 396kts
07-Nov-19 21:29 46.559674 -120.425393 309 27906ft 375kts
07-Nov-19 21:30 46.618335 -120.544884 305 24571ft 356kts
07-Nov-19 21:31 46.675655 -120.664988 304 24344ft 369kts
07-Nov-19 21:32 46.731552 -120.782646 304 24347ft 367kts
07-Nov-19 21:33 46.789583 -120.905202 304 24339ft 368kts
07-Nov-19 21:34 46.847406 -121.028415 304 24324ft 369kts
07-Nov-19 21:35 46.905614 -121.152503 304 24299ft 371kts
07-Nov-19 21:36 46.963638 -121.276706 303 24105ft 357kts
07-Nov-19 21:37 47.014868 -121.386878 303 22348ft 311kts
07-Nov-19 21:38 47.062505 -121.489731 303 19753ft 302kts
07-Nov-19 21:39 47.108384 -121.589695 303 17249ft 294kts
07-Nov-19 21:40 47.124010 -121.703310 274 14837ft 286kts
07-Nov-19 21:41 47.129022 -121.818045 275 12504ft 279kts
07-Nov-19 21:42 47.134199 -121.931040 275 10162ft 276kts
07-Nov-19 21:43 47.142428 -122.041123 290 8120ft 264kts
07-Nov-19 21:44 47.171897 -122.136104 295 6648ft 241kts
07-Nov-19 21:45 47.199025 -122.220535 295 5464ft 222kts
07-Nov-19 21:46 47.231910 -122.294624 324 4171ft 209kts
07-Nov-19 21:47 47.283635 -122.314479 5 3448ft 191kts
07-Nov-19 21:48 47.332037 -122.312202 0 2461ft 158kts
07-Nov-19 21:49 47.374703 -122.311795 1 1605ft 147kts
07-Nov-19 21:50 47.415716 -122.311413 0 841ft 148kts
07-Nov-19 21:51 47.449874 -122.311118 0 434ft 40kts
07-Nov-19 21:52 47.454538 -122.309590 28 434ft 2kts
07-Nov-19 21:53 47.454822 -122.306305 160 434ft 11kts
07-Nov-19 21:54 47.452122 -122.306289 180 434ft 8kts
07-Nov-19 21:55 47.446569 -122.306315 180 434ft 21kts
07-Nov-19 21:56 47.440850 -122.306374 180 434ft 19kts
07-Nov-19 21:57 47.439931 -122.303779 82 434ft 11kts
07-Nov-19 21:58 47.440610 -122.300670 33 434ft 0kts
07-Nov-19 21:59 47.440844 -122.300439 38 434ft 2kts

Navigation Log

Ident Type
Flight plan parsing failed, navigation log unavailable